Time;durP1;ratioP1;P1;durP2;ratioP2;P2;SDS_P1;SDS_P2;PMS_P1;PMS_P2;Temp;Humidity;BMP_temperature;BMP_pressure;BME280_temperature;BME280_humidity;BME280_pressure;Samples;Min_cycle;Max_cycle;Signal;HPM_P1;HPM_P2
2022/03/29 00:00:05;;;;;;;;;;;20.60;99.90;;;;;;5090372;28;20312;-58
2022/03/29 00:02:38;;;;;;;;;;;20.60;99.90;;;;;;5101258;28;19923;-59
2022/03/29 00:05:06;;;;;;;;;;;20.50;99.90;;;;;;5095924;28;19927;-60
2022/03/29 00:07:34;;;;;;;;;;;20.50;99.90;;;;;;5099544;28;19920;-58
2022/03/29 00:10:07;;;;;;;;;;;20.50;99.90;;;;;;5099880;28;19920;-56
2022/03/29 00:12:35;;;;;;;;;;;20.60;99.90;;;;;;5100767;28;20395;-58
2022/03/29 00:15:03;;;;;;;;;;;20.50;99.90;;;;;;5102012;28;19931;-58
2022/03/29 00:17:30;;;;;;;;;;;20.50;99.90;;;;;;5103381;28;20427;-57
2022/03/29 00:19:57;;;;;;;;;;;20.50;99.90;;;;;;5091751;28;20320;-55
2022/03/29 00:22:24;;;;;;;;;;;20.50;99.90;;;;;;5101089;28;20025;-58
2022/03/29 00:24:52;;;;;;;;;;;20.50;99.90;;;;;;5103920;28;19924;-57
2022/03/29 00:27:19;;;;;;;;;;;20.50;99.90;;;;;;5081163;28;19924;-60
2022/03/29 00:29:47;;;;;;;;;;;20.50;99.90;;;;;;5094293;28;20315;-56
2022/03/29 00:32:16;;;;;;;;;;;20.60;99.90;;;;;;5073970;28;19920;-58
2022/03/29 00:34:43;;;;;;;;;;;20.50;99.90;;;;;;5089720;28;19927;-58
2022/03/29 00:37:10;;;;;;;;;;;20.50;99.90;;;;;;5098763;28;19931;-58
2022/03/29 00:39:37;;;;;;;;;;;20.50;99.90;;;;;;5094742;28;19931;-57
2022/03/29 00:42:05;;;;;;;;;;;20.50;99.90;;;;;;5098359;28;19924;-59
2022/03/29 00:44:34;;;;;;;;;;;20.50;99.90;;;;;;5080207;28;19924;-56
2022/03/29 00:47:02;;;;;;;;;;;20.50;99.90;;;;;;5092834;28;19920;-57
2022/03/29 00:49:29;;;;;;;;;;;20.50;99.90;;;;;;5095064;28;19924;-58
2022/03/29 00:51:58;;;;;;;;;;;20.60;99.90;;;;;;5102281;28;20395;-58
2022/03/29 00:54:26;;;;;;;;;;;20.50;99.90;;;;;;5090856;28;19931;-58
2022/03/29 00:56:56;;;;;;;;;;;20.50;99.90;;;;;;5097531;28;20019;-58
2022/03/29 00:59:24;;;;;;;;;;;20.50;99.90;;;;;;5091648;28;19924;-59
2022/03/29 01:01:52;;;;;;;;;;;20.50;99.90;;;;;;5097164;28;19927;-60
2022/03/29 01:04:20;;;;;;;;;;;20.50;99.90;;;;;;5104827;28;19931;-56
2022/03/29 01:06:47;;;;;;;;;;;20.50;99.90;;;;;;5102629;28;20279;-55
2022/03/29 01:09:15;;;;;;;;;;;20.50;99.90;;;;;;5099330;28;20311;-59
2022/03/29 01:11:42;;;;;;;;;;;20.50;99.90;;;;;;5089169;28;19920;-57
2022/03/29 01:14:09;;;;;;;;;;;20.50;99.90;;;;;;5096102;28;19924;-56
2022/03/29 01:19:22;;;;;;;;;;;20.50;99.90;;;;;;5090679;28;19923;-53
2022/03/29 01:21:59;;;;;;;;;;;20.50;99.90;;;;;;5095581;28;20273;-56
2022/03/29 01:24:27;;;;;;;;;;;20.40;99.90;;;;;;5104535;28;20336;-55
2022/03/29 01:26:59;;;;;;;;;;;20.50;99.90;;;;;;5105762;28;20302;-56
2022/03/29 01:29:28;;;;;;;;;;;20.40;99.90;;;;;;5098261;28;19942;-59
2022/03/29 01:31:56;;;;;;;;;;;20.40;99.90;;;;;;5101758;28;19969;-59
2022/03/29 01:34:24;;;;;;;;;;;20.40;99.90;;;;;;5105178;28;19930;-59
2022/03/29 01:36:51;;;;;;;;;;;20.40;99.90;;;;;;5109225;28;19927;-58
2022/03/29 01:39:18;;;;;;;;;;;20.40;99.90;;;;;;5091518;28;19927;-57
2022/03/29 01:41:45;;;;;;;;;;;20.40;99.90;;;;;;5102986;28;19924;-56
2022/03/29 01:44:12;;;;;;;;;;;20.50;99.90;;;;;;5107612;28;19930;-58
2022/03/29 01:46:39;;;;;;;;;;;20.40;99.90;;;;;;5093271;28;19924;-59
2022/03/29 01:49:07;;;;;;;;;;;20.40;99.90;;;;;;5091151;28;19927;-57
2022/03/29 01:51:34;;;;;;;;;;;20.40;99.90;;;;;;5102842;28;19938;-58
2022/03/29 01:54:05;;;;;;;;;;;20.40;99.90;;;;;;5110315;28;20292;-56
2022/03/29 01:56:33;;;;;;;;;;;20.40;99.90;;;;;;5108604;28;19931;-58
2022/03/29 01:59:04;;;;;;;;;;;20.40;99.90;;;;;;5091859;28;19931;-59
2022/03/29 02:01:37;;;;;;;;;;;20.40;99.90;;;;;;5096213;28;19920;-58
2022/03/29 02:04:05;;;;;;;;;;;20.40;99.90;;;;;;5070976;28;19924;-57
2022/03/29 02:06:32;;;;;;;;;;;20.40;99.90;;;;;;5094202;28;20093;-55
2022/03/29 02:09:00;;;;;;;;;;;20.40;99.90;;;;;;5107928;28;19923;-59
2022/03/29 02:11:27;;;;;;;;;;;20.40;99.90;;;;;;5101699;28;19926;-58
2022/03/29 02:13:54;;;;;;;;;;;20.40;99.90;;;;;;5100262;28;20602;-57
2022/03/29 02:16:22;;;;;;;;;;;20.40;99.90;;;;;;5099623;28;19920;-58
2022/03/29 02:18:49;;;;;;;;;;;20.40;99.90;;;;;;5089716;28;19924;-57
2022/03/29 02:21:17;;;;;;;;;;;20.40;99.90;;;;;;5088405;28;20389;-57
2022/03/29 02:23:44;;;;;;;;;;;20.40;99.90;;;;;;5075455;28;20406;-56
2022/03/29 02:26:11;;;;;;;;;;;20.40;99.90;;;;;;5107817;28;19923;-56
2022/03/29 02:28:38;;;;;;;;;;;20.40;99.90;;;;;;5085250;28;19931;-58
2022/03/29 02:31:05;;;;;;;;;;;20.40;99.90;;;;;;5096242;28;19931;-59
2022/03/29 02:33:32;;;;;;;;;;;20.40;99.90;;;;;;5101430;28;19931;-57
2022/03/29 02:36:00;;;;;;;;;;;20.40;99.90;;;;;;5089104;28;19931;-59
2022/03/29 02:38:27;;;;;;;;;;;20.40;99.90;;;;;;5098388;28;20435;-58
2022/03/29 02:40:57;;;;;;;;;;;20.40;99.90;;;;;;5099150;28;19931;-59
2022/03/29 02:43:25;;;;;;;;;;;20.40;99.90;;;;;;5090504;28;19923;-58
2022/03/29 02:45:53;;;;;;;;;;;20.40;99.90;;;;;;5084554;28;19920;-59
2022/03/29 02:48:20;;;;;;;;;;;20.40;99.90;;;;;;5094322;28;19932;-57
2022/03/29 02:50:47;;;;;;;;;;;20.40;99.90;;;;;;5103300;28;19930;-60
2022/03/29 02:53:15;;;;;;;;;;;20.40;99.90;;;;;;5104293;28;20379;-57
2022/03/29 02:55:43;;;;;;;;;;;20.40;99.90;;;;;;5076398;28;19920;-55
2022/03/29 02:58:11;;;;;;;;;;;20.40;99.90;;;;;;5095738;28;19924;-57
2022/03/29 03:00:39;;;;;;;;;;;20.40;99.90;;;;;;5093203;28;19927;-58
2022/03/29 03:03:06;;;;;;;;;;;20.40;99.90;;;;;;5099212;28;19919;-56
2022/03/29 03:05:34;;;;;;;;;;;20.40;99.90;;;;;;5099067;28;20254;-57
2022/03/29 03:08:02;;;;;;;;;;;20.40;99.90;;;;;;5103587;28;19926;-56
2022/03/29 03:10:30;;;;;;;;;;;20.40;99.90;;;;;;5105927;28;19923;-57
2022/03/29 03:12:57;;;;;;;;;;;20.40;99.90;;;;;;5101517;28;19923;-58
2022/03/29 03:15:25;;;;;;;;;;;20.40;99.90;;;;;;5095154;28;19924;-58
2022/03/29 03:17:52;;;;;;;;;;;20.30;99.90;;;;;;5088578;28;19924;-55
2022/03/29 03:20:21;;;;;;;;;;;20.30;99.90;;;;;;5097045;28;20423;-58
2022/03/29 03:22:49;;;;;;;;;;;20.30;99.90;;;;;;5092772;28;19927;-57
2022/03/29 03:25:16;;;;;;;;;;;20.30;99.90;;;;;;5091147;28;20373;-54
2022/03/29 03:27:43;;;;;;;;;;;20.30;99.90;;;;;;5102008;28;19920;-58
2022/03/29 03:30:12;;;;;;;;;;;20.30;99.90;;;;;;5101298;28;20653;-56
2022/03/29 03:32:40;;;;;;;;;;;20.30;99.90;;;;;;5105117;28;19958;-58
2022/03/29 03:35:07;;;;;;;;;;;20.30;99.90;;;;;;5081140;28;19930;-59
2022/03/29 03:37:34;;;;;;;;;;;20.30;99.90;;;;;;5095811;28;19928;-57
2022/03/29 03:40:03;;;;;;;;;;;20.30;99.90;;;;;;5088488;28;19924;-57
2022/03/29 03:42:30;;;;;;;;;;;20.30;99.90;;;;;;5099496;28;19924;-59
2022/03/29 03:44:58;;;;;;;;;;;20.30;99.90;;;;;;5097722;28;20329;-58
2022/03/29 03:47:28;;;;;;;;;;;20.30;99.90;;;;;;5086655;28;19920;-60
2022/03/29 03:49:55;;;;;;;;;;;20.30;99.90;;;;;;5088917;28;19920;-59
2022/03/29 03:52:22;;;;;;;;;;;20.30;99.90;;;;;;5087471;28;19920;-58
2022/03/29 03:54:49;;;;;;;;;;;20.30;99.90;;;;;;5087504;28;20668;-60
2022/03/29 03:57:18;;;;;;;;;;;20.30;99.90;;;;;;5091636;28;19997;-54
2022/03/29 03:59:48;;;;;;;;;;;20.30;99.90;;;;;;5092825;28;19923;-58
2022/03/29 04:02:15;;;;;;;;;;;20.30;99.90;;;;;;5096198;28;19923;-59
2022/03/29 04:04:42;;;;;;;;;;;20.40;99.90;;;;;;5088256;28;19950;-55
2022/03/29 04:07:09;;;;;;;;;;;20.40;99.90;;;;;;5089205;28;19959;-57
2022/03/29 04:09:38;;;;;;;;;;;20.50;99.90;;;;;;5095567;28;19930;-57
2022/03/29 04:12:06;;;;;;;;;;;20.50;99.90;;;;;;5093471;28;20320;-58
2022/03/29 04:14:33;;;;;;;;;;;20.50;99.90;;;;;;5099992;28;19926;-58
2022/03/29 04:17:00;;;;;;;;;;;20.50;99.90;;;;;;5096781;28;19927;-57
2022/03/29 04:19:27;;;;;;;;;;;20.50;99.90;;;;;;5101059;28;19920;-60
2022/03/29 04:21:55;;;;;;;;;;;20.50;99.90;;;;;;5101794;28;19930;-59
2022/03/29 04:24:22;;;;;;;;;;;20.50;99.90;;;;;;5106247;28;19934;-56
2022/03/29 04:26:49;;;;;;;;;;;20.50;99.90;;;;;;5096702;28;19931;-59
2022/03/29 04:29:16;;;;;;;;;;;20.50;99.90;;;;;;5093931;28;19920;-58
2022/03/29 04:31:43;;;;;;;;;;;20.50;99.90;;;;;;5105271;28;20479;-57
2022/03/29 04:34:10;;;;;;;;;;;20.60;99.90;;;;;;5095641;28;20729;-58
2022/03/29 04:36:38;;;;;;;;;;;20.50;99.90;;;;;;5092803;28;19927;-58
2022/03/29 04:39:05;;;;;;;;;;;20.60;99.90;;;;;;5097130;28;19924;-59
2022/03/29 04:41:32;;;;;;;;;;;20.60;99.90;;;;;;5104304;28;19930;-58
2022/03/29 04:44:15;;;;;;;;;;;20.60;99.90;;;;;;5101692;28;20384;-59
2022/03/29 04:46:42;;;;;;;;;;;20.60;99.90;;;;;;5099490;28;19923;-60
2022/03/29 04:49:09;;;;;;;;;;;20.60;99.90;;;;;;5109105;28;19923;-60
2022/03/29 04:51:37;;;;;;;;;;;20.60;99.90;;;;;;5102694;28;20305;-61
2022/03/29 04:54:04;;;;;;;;;;;20.60;99.90;;;;;;5091772;28;19934;-60
2022/03/29 04:56:33;;;;;;;;;;;20.60;99.90;;;;;;5107436;28;19920;-59
2022/03/29 04:59:00;;;;;;;;;;;20.60;99.90;;;;;;5107192;28;20308;-59
2022/03/29 05:01:27;;;;;;;;;;;20.60;99.90;;;;;;5104354;28;20327;-59
2022/03/29 05:03:54;;;;;;;;;;;20.60;99.90;;;;;;5098790;28;19931;-59
2022/03/29 05:06:21;;;;;;;;;;;20.60;99.90;;;;;;5101895;28;19919;-59
2022/03/29 05:08:48;;;;;;;;;;;20.50;99.90;;;;;;5108196;28;19919;-59
2022/03/29 05:11:16;;;;;;;;;;;20.50;99.90;;;;;;5089011;28;20341;-57
2022/03/29 05:13:43;;;;;;;;;;;20.50;99.90;;;;;;5091857;28;19920;-58
2022/03/29 05:16:10;;;;;;;;;;;20.50;99.90;;;;;;5108327;28;19924;-58
2022/03/29 05:18:38;;;;;;;;;;;20.50;99.90;;;;;;5089877;28;19928;-61
2022/03/29 05:21:05;;;;;;;;;;;20.50;99.90;;;;;;5104035;28;19924;-60
2022/03/29 05:23:32;;;;;;;;;;;20.50;99.90;;;;;;5111372;28;19923;-56
2022/03/29 05:26:02;;;;;;;;;;;20.50;99.90;;;;;;5104111;28;19930;-58
2022/03/29 05:28:29;;;;;;;;;;;20.50;99.90;;;;;;5095132;28;19931;-58
2022/03/29 05:30:56;;;;;;;;;;;20.50;99.90;;;;;;5092509;28;19924;-59
2022/03/29 05:33:23;;;;;;;;;;;20.50;99.90;;;;;;5102529;28;19923;-59
2022/03/29 05:35:50;;;;;;;;;;;20.50;99.90;;;;;;5105855;28;20396;-58
2022/03/29 05:38:17;;;;;;;;;;;20.50;99.90;;;;;;5094607;28;19931;-56
2022/03/29 05:40:44;;;;;;;;;;;20.50;99.90;;;;;;5106659;28;19923;-58
2022/03/29 05:43:12;;;;;;;;;;;20.50;99.90;;;;;;5104904;28;19920;-59
2022/03/29 05:45:40;;;;;;;;;;;20.50;99.90;;;;;;5089813;28;19924;-58
2022/03/29 05:50:53;;;;;;;;;;;20.60;99.90;;;;;;5101771;28;19923;-57
2022/03/29 05:53:20;;;;;;;;;;;20.60;99.90;;;;;;5104716;28;19924;-58
2022/03/29 05:55:48;;;;;;;;;;;20.50;99.90;;;;;;5107731;28;20319;-59
2022/03/29 05:58:16;;;;;;;;;;;20.50;99.90;;;;;;5094039;28;20300;-58
2022/03/29 06:00:43;;;;;;;;;;;20.50;99.90;;;;;;5095522;28;19938;-57
2022/03/29 06:03:11;;;;;;;;;;;20.50;99.90;;;;;;5106512;28;19928;-59
2022/03/29 06:05:42;;;;;;;;;;;20.50;99.90;;;;;;5110856;28;19927;-59
2022/03/29 06:08:10;;;;;;;;;;;20.40;99.90;;;;;;5100245;28;19932;-57
2022/03/29 06:10:37;;;;;;;;;;;20.50;99.90;;;;;;5102085;28;20304;-58
2022/03/29 06:13:05;;;;;;;;;;;20.50;99.90;;;;;;5103027;28;20657;-56
2022/03/29 06:15:32;;;;;;;;;;;20.50;99.90;;;;;;5098244;28;20348;-53
2022/03/29 06:17:59;;;;;;;;;;;20.60;99.90;;;;;;5096023;28;20320;-55
2022/03/29 06:20:26;;;;;;;;;;;20.60;99.90;;;;;;5102511;28;20301;-57
2022/03/29 06:22:54;;;;;;;;;;;20.60;99.90;;;;;;5106323;28;20363;-55
2022/03/29 06:25:21;;;;;;;;;;;20.60;99.90;;;;;;5104034;28;19920;-58
2022/03/29 06:27:49;;;;;;;;;;;20.60;99.90;;;;;;5087609;28;19938;-59
2022/03/29 06:30:16;;;;;;;;;;;20.60;99.90;;;;;;5100541;28;19923;-59
2022/03/29 06:32:45;;;;;;;;;;;20.70;99.90;;;;;;5097459;28;19932;-55
2022/03/29 06:35:12;;;;;;;;;;;20.70;99.90;;;;;;5102833;28;20376;-55
2022/03/29 06:37:40;;;;;;;;;;;20.70;99.90;;;;;;5104178;28;20379;-56
2022/03/29 06:40:08;;;;;;;;;;;20.60;99.90;;;;;;5107142;28;19920;-55
2022/03/29 06:42:35;;;;;;;;;;;20.60;99.90;;;;;;5089829;28;19924;-57
2022/03/29 06:45:03;;;;;;;;;;;20.40;99.90;;;;;;5105617;28;20001;-54
2022/03/29 06:47:30;;;;;;;;;;;20.30;99.90;;;;;;5105238;28;19923;-57
2022/03/29 06:49:57;;;;;;;;;;;20.20;99.90;;;;;;5098576;28;20372;-55
2022/03/29 06:52:26;;;;;;;;;;;20.10;99.90;;;;;;5100846;28;20315;-55
2022/03/29 06:54:53;;;;;;;;;;;20.10;99.70;;;;;;5102681;28;19923;-52
2022/03/29 06:57:20;;;;;;;;;;;20.00;99.00;;;;;;5101302;28;20415;-53
2022/03/29 06:59:47;;;;;;;;;;;20.10;97.40;;;;;;5098032;28;19920;-56
2022/03/29 07:02:16;;;;;;;;;;;20.20;97.10;;;;;;5104205;28;19933;-56
2022/03/29 07:04:43;;;;;;;;;;;20.20;97.60;;;;;;5092790;28;19927;-54
2022/03/29 07:07:10;;;;;;;;;;;20.20;97.90;;;;;;5085074;28;20241;-58
2022/03/29 07:12:24;;;;;;;;;;;20.10;97.10;;;;;;5100749;28;19923;-55
2022/03/29 07:14:51;;;;;;;;;;;20.10;97.00;;;;;;5103999;28;19927;-56
2022/03/29 07:17:19;;;;;;;;;;;20.10;96.90;;;;;;5104790;28;19946;-55
2022/03/29 07:19:46;;;;;;;;;;;20.10;96.80;;;;;;5104921;28;20010;-57
2022/03/29 07:22:13;;;;;;;;;;;20.00;96.80;;;;;;5095472;28;19928;-56
2022/03/29 07:24:41;;;;;;;;;;;20.00;96.80;;;;;;5092931;28;19928;-57
2022/03/29 07:27:08;;;;;;;;;;;20.00;97.00;;;;;;5099634;28;20030;-55
2022/03/29 07:29:36;;;;;;;;;;;20.00;97.00;;;;;;5095704;28;19931;-54
2022/03/29 07:32:03;;;;;;;;;;;19.90;97.00;;;;;;5088116;28;19923;-53
2022/03/29 07:34:35;;;;;;;;;;;19.90;97.00;;;;;;5102871;28;19931;-56
2022/03/29 07:37:03;;;;;;;;;;;20.00;98.00;;;;;;5093211;28;19923;-56
2022/03/29 07:39:30;;;;;;;;;;;20.10;99.20;;;;;;5087554;28;20306;-56
2022/03/29 07:41:57;;;;;;;;;;;20.10;99.90;;;;;;5077470;28;19958;-57
2022/03/29 07:44:24;;;;;;;;;;;20.10;99.90;;;;;;5091891;28;20320;-56
2022/03/29 07:46:51;;;;;;;;;;;20.20;99.90;;;;;;5093772;28;19924;-59
2022/03/29 07:49:19;;;;;;;;;;;20.20;99.90;;;;;;5096185;28;19923;-52
2022/03/29 07:52:06;;;;;;;;;;;20.20;99.90;;;;;;5090294;28;19924;-57
2022/03/29 07:54:33;;;;;;;;;;;20.30;99.90;;;;;;5068428;28;19920;-55
2022/03/29 07:57:01;;;;;;;;;;;20.30;99.90;;;;;;5103416;28;19934;-56
2022/03/29 07:59:28;;;;;;;;;;;20.30;99.90;;;;;;5092751;28;19935;-51
2022/03/29 08:01:56;;;;;;;;;;;20.30;99.90;;;;;;5099017;28;19930;-54
2022/03/29 08:04:23;;;;;;;;;;;20.30;99.90;;;;;;5096334;28;20392;-54
2022/03/29 08:06:50;;;;;;;;;;;20.30;99.90;;;;;;5106992;28;20023;-55
2022/03/29 08:09:18;;;;;;;;;;;20.30;99.90;;;;;;5103544;28;20438;-59
2022/03/29 08:11:45;;;;;;;;;;;20.30;99.90;;;;;;5093047;28;20392;-60
2022/03/29 08:14:14;;;;;;;;;;;20.30;99.90;;;;;;5101426;28;19924;-54
2022/03/29 08:16:41;;;;;;;;;;;20.40;99.90;;;;;;5105028;28;19934;-56
2022/03/29 08:19:09;;;;;;;;;;;20.40;99.90;;;;;;5099974;28;19938;-57
2022/03/29 08:21:49;;;;;;;;;;;20.40;99.90;;;;;;5076585;28;20557;-56
2022/03/29 08:24:18;;;;;;;;;;;20.50;99.90;;;;;;5106319;28;20281;-57
2022/03/29 08:26:46;;;;;;;;;;;20.50;99.90;;;;;;5107983;28;19928;-56
2022/03/29 08:29:15;;;;;;;;;;;20.50;99.90;;;;;;5104923;28;20218;-55
2022/03/29 08:31:43;;;;;;;;;;;20.60;99.90;;;;;;5100066;28;20402;-56
2022/03/29 08:34:11;;;;;;;;;;;20.50;99.90;;;;;;5100725;28;19928;-56
2022/03/29 08:36:39;;;;;;;;;;;20.60;99.90;;;;;;5097604;28;19924;-56
2022/03/29 08:39:07;;;;;;;;;;;20.60;99.90;;;;;;5106494;28;20003;-57
2022/03/29 08:41:38;;;;;;;;;;;20.60;99.90;;;;;;5102048;28;20402;-54
2022/03/29 08:44:06;;;;;;;;;;;20.60;99.90;;;;;;5099529;28;19923;-54
2022/03/29 08:46:35;;;;;;;;;;;20.60;99.90;;;;;;5099776;28;20520;-57
2022/03/29 08:49:03;;;;;;;;;;;20.50;99.90;;;;;;5105668;28;19923;-58
2022/03/29 08:51:30;;;;;;;;;;;20.60;99.90;;;;;;5105602;28;20255;-54
2022/03/29 08:53:59;;;;;;;;;;;20.50;99.90;;;;;;5087966;28;19924;-54
2022/03/29 08:56:26;;;;;;;;;;;20.50;99.90;;;;;;5089740;28;19919;-58
2022/03/29 08:58:54;;;;;;;;;;;20.60;99.90;;;;;;5104436;28;19919;-56
2022/03/29 09:01:22;;;;;;;;;;;20.60;99.90;;;;;;5107236;28;19924;-54
2022/03/29 09:04:06;;;;;;;;;;;20.60;99.90;;;;;;5089186;28;19934;-53
2022/03/29 09:06:56;;;;;;;;;;;20.60;99.90;;;;;;5094660;28;20277;-58
2022/03/29 09:09:24;;;;;;;;;;;20.60;99.90;;;;;;5105067;28;19951;-57
2022/03/29 09:11:53;;;;;;;;;;;20.60;99.90;;;;;;5106049;28;19924;-55
2022/03/29 09:14:21;;;;;;;;;;;20.60;99.90;;;;;;5088574;28;19920;-56
2022/03/29 09:16:51;;;;;;;;;;;20.60;99.90;;;;;;5109157;28;19920;-57
2022/03/29 09:19:23;;;;;;;;;;;20.60;99.90;;;;;;5097350;27;19920;-58
2022/03/29 09:21:53;;;;;;;;;;;20.70;99.90;;;;;;5091495;28;19928;-57
2022/03/29 09:24:21;;;;;;;;;;;20.70;99.90;;;;;;5106573;28;19919;-57
2022/03/29 09:26:54;;;;;;;;;;;20.70;99.90;;;;;;5107193;28;19931;-52
2022/03/29 09:29:22;;;;;;;;;;;20.70;99.90;;;;;;5093503;28;19943;-55
2022/03/29 09:32:06;;;;;;;;;;;20.70;99.90;;;;;;5103855;28;19931;-58
2022/03/29 09:34:34;;;;;;;;;;;20.70;99.90;;;;;;5104796;28;19919;-58
2022/03/29 09:37:03;;;;;;;;;;;20.70;99.90;;;;;;5104685;28;19927;-54
2022/03/29 09:39:30;;;;;;;;;;;20.60;99.90;;;;;;5105972;28;19930;-57
2022/03/29 09:42:02;;;;;;;;;;;20.70;99.90;;;;;;5100106;28;19920;-57
2022/03/29 09:44:37;;;;;;;;;;;20.70;99.90;;;;;;5086295;28;20285;-58
2022/03/29 09:47:07;;;;;;;;;;;20.60;99.90;;;;;;5106364;28;19928;-58
2022/03/29 09:49:54;;;;;;;;;;;20.60;99.90;;;;;;5111020;28;19923;-55
2022/03/29 09:52:26;;;;;;;;;;;20.60;99.90;;;;;;5089600;28;19923;-57
2022/03/29 09:55:02;;;;;;;;;;;20.60;99.90;;;;;;5103203;28;20118;-54
2022/03/29 09:57:53;;;;;;;;;;;20.60;99.90;;;;;;5089267;28;19935;-55
2022/03/29 10:01:03;;;;;;;;;;;20.60;99.90;;;;;;5081574;28;19935;-58
2022/03/29 10:03:23;;;;;;;;;;;20.60;99.90;;;;;;5087799;28;19924;-56
2022/03/29 10:06:01;;;;;;;;;;;20.60;99.90;;;;;;5088800;28;19924;-57
2022/03/29 10:11:16;;;;;;;;;;;20.60;99.90;;;;;;5092908;28;19942;-53
2022/03/29 10:13:45;;;;;;;;;;;20.60;99.90;;;;;;5084048;28;19920;-55
2022/03/29 10:16:14;;;;;;;;;;;20.60;99.90;;;;;;5101808;28;19920;-56
2022/03/29 10:18:42;;;;;;;;;;;20.60;99.90;;;;;;5087922;28;19983;-56
2022/03/29 10:21:13;;;;;;;;;;;20.60;99.90;;;;;;5088270;28;19943;-56
2022/03/29 10:23:45;;;;;;;;;;;20.60;99.90;;;;;;5092640;28;20011;-56
2022/03/29 10:26:21;;;;;;;;;;;20.60;99.90;;;;;;5086610;28;19920;-58
2022/03/29 10:28:48;;;;;;;;;;;20.60;99.90;;;;;;5105661;28;19920;-57
2022/03/29 10:31:28;;;;;;;;;;;20.60;99.90;;;;;;5096577;28;19927;-57
2022/03/29 10:34:32;;;;;;;;;;;20.60;99.90;;;;;;5097222;28;19988;-59
2022/03/29 10:36:59;;;;;;;;;;;20.60;99.90;;;;;;5015926;28;19936;-57
2022/03/29 10:39:43;;;;;;;;;;;20.60;99.90;;;;;;5077918;28;19931;-58
2022/03/29 10:42:25;;;;;;;;;;;20.60;99.90;;;;;;5089100;28;20296;-58
2022/03/29 10:45:01;;;;;;;;;;;20.50;99.90;;;;;;5096492;28;20590;-53
2022/03/29 10:48:04;;;;;;;;;;;20.50;99.90;;;;;;5088487;28;20380;-56
2022/03/29 10:50:46;;;;;;;;;;;20.50;99.90;;;;;;5097021;28;20211;-57
2022/03/29 10:53:22;;;;;;;;;;;20.50;99.90;;;;;;5091782;28;19920;-57
2022/03/29 10:56:08;;;;;;;;;;;20.50;99.90;;;;;;5097544;28;19923;-57
2022/03/29 10:58:35;;;;;;;;;;;20.50;99.90;;;;;;5099127;28;19930;-53
2022/03/29 11:01:13;;;;;;;;;;;20.20;95.70;;;;;;5091118;28;19928;-55
2022/03/29 11:03:59;;;;;;;;;;;19.70;92.20;;;;;;5099059;28;19988;-55
2022/03/29 11:06:26;;;;;;;;;;;19.50;92.70;;;;;;5101506;28;19924;-52
2022/03/29 11:09:17;;;;;;;;;;;19.50;94.00;;;;;;5102137;28;19930;-55
2022/03/29 11:11:47;;;;;;;;;;;19.60;94.40;;;;;;5099999;28;19923;-56
2022/03/29 11:14:41;;;;;;;;;;;19.80;94.40;;;;;;5097159;28;19943;-54
2022/03/29 11:17:11;;;;;;;;;;;19.90;94.50;;;;;;5097765;28;19923;-57
2022/03/29 11:19:38;;;;;;;;;;;20.10;94.50;;;;;;5104097;28;19923;-55
2022/03/29 11:22:24;;;;;;;;;;;20.10;95.00;;;;;;5101005;28;19946;-54
2022/03/29 11:24:53;;;;;;;;;;;20.10;95.40;;;;;;5098388;28;19920;-58
2022/03/29 11:27:22;;;;;;;;;;;20.20;96.20;;;;;;5082867;28;20380;-55
2022/03/29 11:29:50;;;;;;;;;;;20.20;96.70;;;;;;5106731;28;19939;-58
2022/03/29 11:32:17;;;;;;;;;;;20.20;97.00;;;;;;5105379;28;19923;-57
2022/03/29 11:34:46;;;;;;;;;;;20.30;97.60;;;;;;5104283;28;19923;-59
2022/03/29 11:37:27;;;;;;;;;;;20.30;98.00;;;;;;5101442;28;19924;-57
2022/03/29 11:39:54;;;;;;;;;;;20.30;98.20;;;;;;5074550;28;20464;-55
2022/03/29 11:42:21;;;;;;;;;;;20.30;98.60;;;;;;5102182;28;19927;-56
2022/03/29 11:44:49;;;;;;;;;;;20.30;99.10;;;;;;5083293;28;19935;-55
2022/03/29 11:47:16;;;;;;;;;;;20.40;99.30;;;;;;5108428;28;19920;-54
2022/03/29 11:49:45;;;;;;;;;;;20.30;99.70;;;;;;5078775;28;19920;-56
2022/03/29 11:52:14;;;;;;;;;;;20.30;99.90;;;;;;5071014;28;19928;-53
2022/03/29 11:54:42;;;;;;;;;;;20.40;99.90;;;;;;5096117;28;19928;-59
2022/03/29 11:57:17;;;;;;;;;;;20.40;99.90;;;;;;5099078;28;19931;-59
2022/03/29 11:59:45;;;;;;;;;;;20.40;99.90;;;;;;5099996;28;19935;-61
2022/03/29 12:02:13;;;;;;;;;;;20.40;99.90;;;;;;5099794;28;19935;-61
2022/03/29 12:04:40;;;;;;;;;;;20.50;99.90;;;;;;5094254;28;19939;-65
2022/03/29 12:07:07;;;;;;;;;;;20.40;99.90;;;;;;5097999;28;19920;-63
2022/03/29 12:09:35;;;;;;;;;;;20.50;99.90;;;;;;5076006;28;20501;-61
2022/03/29 12:12:03;;;;;;;;;;;20.50;99.90;;;;;;5101653;28;20434;-63
2022/03/29 12:14:31;;;;;;;;;;;20.50;99.90;;;;;;5083613;28;19939;-61
2022/03/29 12:17:03;;;;;;;;;;;20.50;99.90;;;;;;5099612;28;19920;-60
2022/03/29 12:19:32;;;;;;;;;;;20.50;99.90;;;;;;5099014;28;20388;-60
2022/03/29 12:22:03;;;;;;;;;;;20.50;99.90;;;;;;5100735;28;19927;-57
2022/03/29 12:24:35;;;;;;;;;;;20.50;99.90;;;;;;5084867;28;19934;-62
2022/03/29 12:27:04;;;;;;;;;;;20.50;99.90;;;;;;5076356;28;19938;-64
2022/03/29 12:29:33;;;;;;;;;;;20.50;99.90;;;;;;5092299;28;19955;-59
2022/03/29 12:32:01;;;;;;;;;;;20.60;99.90;;;;;;5077549;28;20402;-58
2022/03/29 12:34:29;;;;;;;;;;;20.60;99.90;;;;;;5103662;28;19924;-62
2022/03/29 12:37:00;;;;;;;;;;;20.60;99.90;;;;;;5106714;28;19924;-58
2022/03/29 12:39:34;;;;;;;;;;;20.60;99.90;;;;;;5103410;28;19927;-58
2022/03/29 12:42:01;;;;;;;;;;;20.60;99.90;;;;;;5099785;28;19924;-56
2022/03/29 12:44:37;;;;;;;;;;;20.60;99.90;;;;;;5105864;28;20727;-59
2022/03/29 12:47:05;;;;;;;;;;;20.60;99.90;;;;;;5103056;28;19923;-65
2022/03/29 12:49:34;;;;;;;;;;;20.70;99.90;;;;;;5111258;28;20474;-66
2022/03/29 12:52:02;;;;;;;;;;;20.80;99.90;;;;;;5108753;28;19923;-64
2022/03/29 12:54:32;;;;;;;;;;;20.80;99.90;;;;;;5110767;28;19938;-64
2022/03/29 12:57:00;;;;;;;;;;;20.80;99.90;;;;;;5107654;28;19932;-62
2022/03/29 12:59:37;;;;;;;;;;;20.80;99.90;;;;;;5108603;28;20331;-63
2022/03/29 13:02:12;;;;;;;;;;;20.80;99.90;;;;;;5105741;28;19968;-62
2022/03/29 13:04:41;;;;;;;;;;;20.80;99.90;;;;;;5106293;28;20407;-61
2022/03/29 13:07:08;;;;;;;;;;;20.90;99.90;;;;;;5108848;28;19931;-61
2022/03/29 13:09:37;;;;;;;;;;;20.90;99.90;;;;;;5108158;28;19931;-65
2022/03/29 13:12:24;;;;;;;;;;;20.90;99.90;;;;;;5108002;28;19931;-63
2022/03/29 13:14:51;;;;;;;;;;;20.90;99.90;;;;;;5103497;28;19931;-61
2022/03/29 13:17:19;;;;;;;;;;;20.90;99.90;;;;;;5111011;28;19920;-58
2022/03/29 13:19:53;;;;;;;;;;;20.80;99.90;;;;;;5099937;28;19927;-59
2022/03/29 13:22:21;;;;;;;;;;;20.80;99.90;;;;;;5109408;28;19927;-60
2022/03/29 13:24:48;;;;;;;;;;;20.80;99.90;;;;;;5109774;28;19919;-59
2022/03/29 13:27:17;;;;;;;;;;;20.80;99.90;;;;;;5104251;28;19930;-61
2022/03/29 13:29:49;;;;;;;;;;;20.80;99.90;;;;;;5096601;28;19928;-60
2022/03/29 13:32:16;;;;;;;;;;;20.70;99.90;;;;;;5106798;28;20416;-61
2022/03/29 13:34:44;;;;;;;;;;;20.70;99.90;;;;;;5107222;28;20271;-61
2022/03/29 13:37:11;;;;;;;;;;;20.70;99.90;;;;;;5108735;28;20299;-60
2022/03/29 13:39:38;;;;;;;;;;;20.70;99.90;;;;;;5093321;28;19923;-59
2022/03/29 13:42:08;;;;;;;;;;;20.70;99.90;;;;;;5090217;28;19933;-60
2022/03/29 13:44:36;;;;;;;;;;;20.70;99.90;;;;;;5109960;28;19923;-61
2022/03/29 13:47:03;;;;;;;;;;;20.70;99.90;;;;;;5106455;28;20308;-61
2022/03/29 13:49:30;;;;;;;;;;;20.70;99.90;;;;;;5074233;28;20148;-62
2022/03/29 13:51:58;;;;;;;;;;;20.60;99.90;;;;;;5106141;28;20315;-62
2022/03/29 13:54:25;;;;;;;;;;;20.70;99.90;;;;;;5108045;28;19923;-60
2022/03/29 13:56:53;;;;;;;;;;;20.70;99.90;;;;;;5103673;28;20474;-62
2022/03/29 13:59:25;;;;;;;;;;;20.70;99.90;;;;;;5104370;28;20297;-61
2022/03/29 14:01:54;;;;;;;;;;;20.60;99.90;;;;;;5090359;28;20023;-61
2022/03/29 14:04:21;;;;;;;;;;;20.70;99.90;;;;;;5107417;28;19920;-61
2022/03/29 14:06:48;;;;;;;;;;;20.60;99.90;;;;;;5106333;28;19947;-59
2022/03/29 14:09:16;;;;;;;;;;;20.60;99.90;;;;;;5111473;28;19942;-59
2022/03/29 14:11:43;;;;;;;;;;;20.60;99.90;;;;;;5106767;28;19928;-62
2022/03/29 14:14:11;;;;;;;;;;;20.60;99.90;;;;;;5110702;28;19919;-64
2022/03/29 14:16:38;;;;;;;;;;;20.60;99.90;;;;;;5104584;28;19938;-61
2022/03/29 14:19:07;;;;;;;;;;;20.60;99.90;;;;;;5102442;28;20299;-61
2022/03/29 14:21:34;;;;;;;;;;;20.60;99.90;;;;;;5099992;28;19924;-60
2022/03/29 14:24:02;;;;;;;;;;;20.60;99.90;;;;;;5106065;28;20375;-58
2022/03/29 14:26:30;;;;;;;;;;;20.60;99.90;;;;;;5090374;28;19928;-63
2022/03/29 14:29:00;;;;;;;;;;;20.60;99.90;;;;;;5104998;28;19923;-60
2022/03/29 14:31:27;;;;;;;;;;;20.60;99.90;;;;;;5103469;28;19927;-59
2022/03/29 14:33:58;;;;;;;;;;;20.60;99.90;;;;;;5092459;28;19923;-61
2022/03/29 14:36:27;;;;;;;;;;;20.60;99.90;;;;;;5101764;28;19919;-59
2022/03/29 14:38:56;;;;;;;;;;;20.70;99.90;;;;;;5094992;28;21144;-64